Time;durP1;ratioP1;P1;durP2;ratioP2;P2;SDS_P1;SDS_P2;PMS_P1;PMS_P2;Temp;Humidity;BMP_temperature;BMP_pressure;BME280_temperature;BME280_humidity;BME280_pressure;Samples;Min_cycle;Max_cycle;Signal;HPM_P1;HPM_P2
2022/07/29 00:02:08;;;;;;;10.25;4.97;;;;;;;18.73;80.79;101230.09;1905801;75;21121;-66
2022/07/29 00:04:37;;;;;;;9.63;5.03;;;;;;;18.69;80.85;101224.09;1905756;75;21156;-66
2022/07/29 00:07:06;;;;;;;10.00;5.70;;;;;;;18.67;81.00;101226.86;1905902;75;21043;-66
2022/07/29 00:09:35;;;;;;;8.78;4.95;;;;;;;18.65;81.03;101225.26;1905763;75;21035;-66
2022/07/29 00:12:04;;;;;;;12.73;5.60;;;;;;;18.63;80.89;101229.84;1905883;75;21050;-66
2022/07/29 00:14:33;;;;;;;12.40;5.10;;;;;;;18.61;81.06;101228.61;1905902;75;21118;-66
2022/07/29 00:17:01;;;;;;;11.22;4.50;;;;;;;18.59;81.04;101224.30;1905933;75;21547;-66
2022/07/29 00:19:30;;;;;;;8.70;5.03;;;;;;;18.58;81.12;101224.80;1905845;75;21101;-66
2022/07/29 00:21:58;;;;;;;9.40;4.95;;;;;;;18.57;81.08;101222.22;1905822;75;21493;-66
2022/07/29 00:24:27;;;;;;;7.15;4.67;;;;;;;18.55;81.01;101218.80;1905862;75;21098;-66
2022/07/29 00:26:56;;;;;;;8.98;5.37;;;;;;;18.50;81.44;101221.78;1905670;75;21211;-66
2022/07/29 00:29:25;;;;;;;9.85;4.90;;;;;;;18.49;81.22;101217.39;1905914;75;21043;-65
2022/07/29 00:31:53;;;;;;;9.68;5.37;;;;;;;18.47;81.22;101218.81;1905868;75;21086;-66
2022/07/29 00:37:08;;;;;;;11.03;5.05;;;;;;;18.41;81.52;101216.56;1905852;75;21031;-66
2022/07/29 00:39:37;;;;;;;10.78;5.08;;;;;;;18.35;81.53;101222.27;1905803;75;21101;-66
2022/07/29 00:42:06;;;;;;;8.35;4.97;;;;;;;18.32;81.75;101222.48;1905888;75;21043;-66
2022/07/29 00:44:42;;;;;;;7.50;4.55;;;;;;;18.29;81.87;101221.33;1905974;75;21023;-66
2022/07/29 00:47:12;;;;;;;9.73;4.92;;;;;;;18.29;81.67;101218.67;1905766;75;22196;-65
2022/07/29 00:49:42;;;;;;;10.15;4.62;;;;;;;18.26;81.97;101224.19;1905873;75;21039;-66
2022/07/29 00:52:11;;;;;;;7.60;4.62;;;;;;;18.22;82.08;101221.34;1905854;75;21055;-65
2022/07/29 00:54:41;;;;;;;12.00;5.40;;;;;;;18.19;82.11;101222.89;1905854;75;21485;-65
2022/07/29 00:57:09;;;;;;;9.15;5.25;;;;;;;18.15;82.29;101220.89;1906033;75;21474;-66
2022/07/29 00:59:38;;;;;;;8.38;5.50;;;;;;;18.16;82.36;101227.07;1905870;75;21054;-66
2022/07/29 01:02:07;;;;;;;11.22;4.53;;;;;;;18.12;82.81;101217.92;1905832;75;21015;-66
2022/07/29 01:04:35;;;;;;;7.53;4.70;;;;;;;18.13;82.61;101220.98;1905844;75;21125;-66
2022/07/29 01:07:05;;;;;;;11.15;4.90;;;;;;;18.12;82.67;101221.92;1905839;75;21146;-65
2022/07/29 01:09:34;;;;;;;8.40;5.42;;;;;;;18.12;82.71;101223.25;1905830;75;21485;-65
2022/07/29 01:12:04;;;;;;;7.87;4.55;;;;;;;18.11;82.66;101222.89;1905875;75;21112;-65
2022/07/29 01:14:34;;;;;;;7.72;4.85;;;;;;;18.09;82.91;101222.14;1905921;75;21109;-65
2022/07/29 01:17:14;;;;;;;11.97;4.87;;;;;;;18.06;83.16;101223.66;1905806;75;21043;-65
2022/07/29 01:19:46;;;;;;;10.28;4.50;;;;;;;18.07;82.83;101224.02;1905930;75;21505;-65
2022/07/29 01:22:47;;;;;;;8.15;5.17;;;;;;;18.06;82.58;101216.99;1905983;75;21043;-65
2022/07/29 01:25:25;;;;;;;7.65;4.80;;;;;;;18.04;82.47;101220.23;1852868;77;21177;-65
2022/07/29 01:28:05;;;;;;;7.95;4.90;;;;;;;17.99;82.77;101214.33;1892651;75;21524;-64
2022/07/29 01:30:38;;;;;;;7.22;4.55;;;;;;;17.96;83.04;101213.18;1883281;76;21054;-65
2022/07/29 01:33:48;;;;;;;10.98;4.90;;;;;;;17.91;83.29;101213.48;1883420;76;21409;-66
2022/07/29 01:35:44;;;;;;;9.50;4.95;;;;;;;17.89;83.65;101210.06;1879929;76;21461;-66
2022/07/29 01:38:16;;;;;;;8.05;5.12;;;;;;;17.85;83.92;101209.84;1883399;76;21014;-65
2022/07/29 01:41:04;;;;;;;12.10;4.95;;;;;;;17.82;83.91;101214.02;1882948;76;21034;-65
2022/07/29 01:43:36;;;;;;;8.63;5.15;;;;;;;17.80;84.22;101211.05;1884111;74;21104;-65
2022/07/29 01:46:07;;;;;;;9.53;5.67;;;;;;;17.78;84.22;101207.63;1883495;74;21026;-65
2022/07/29 01:48:51;;;;;;;11.33;5.42;;;;;;;17.79;84.10;101210.69;1883403;76;21113;-65
2022/07/29 01:51:23;;;;;;;;;;;;;;;17.77;84.13;101209.45;1886228;76;21108;-65
2022/07/29 01:54:06;;;;;;;12.23;5.03;;;;;;;17.73;84.16;101208.78;1883445;76;20149;-65
2022/07/29 01:56:38;;;;;;;12.70;5.12;;;;;;;17.69;84.04;101211.26;1883348;76;21547;-65
2022/07/29 01:59:09;;;;;;;13.43;5.65;;;;;;;17.69;84.31;101210.41;1883370;76;21488;-65
2022/07/29 02:01:40;;;;;;;7.47;4.62;;;;;;;17.70;84.53;101218.28;1883550;76;21096;-66
2022/07/29 02:04:11;;;;;;;11.50;5.87;;;;;;;17.68;84.29;101208.69;1883549;76;21570;-65
2022/07/29 02:06:41;;;;;;;12.75;5.40;;;;;;;17.66;84.29;101207.92;1883388;76;21010;-66
2022/07/29 02:09:13;;;;;;;17.27;5.00;;;;;;;17.63;84.67;101204.11;1883477;76;21058;-66
2022/07/29 02:11:43;;;;;;;10.45;5.45;;;;;;;17.61;84.72;101210.01;1883432;76;21021;-65
2022/07/29 02:14:14;;;;;;;8.63;4.67;;;;;;;17.62;84.73;101213.91;1883491;74;21116;-65
2022/07/29 02:16:45;;;;;;;8.23;4.70;;;;;;;17.68;84.65;101208.20;1883589;75;21456;-65
2022/07/29 02:19:15;;;;;;;10.38;5.10;;;;;;;17.69;84.72;101213.92;1883350;76;21026;-66
2022/07/29 02:21:46;;;;;;;10.98;5.40;;;;;;;17.68;84.82;101206.87;1883296;76;21175;-65
2022/07/29 02:24:17;;;;;;;9.20;5.47;;;;;;;17.69;84.90;101203.27;1883466;76;21027;-65
2022/07/29 02:26:46;;;;;;;8.50;5.10;;;;;;;17.69;85.00;101209.92;1883459;76;21018;-65
2022/07/29 02:29:18;;;;;;;10.90;5.12;;;;;;;17.76;85.09;101206.39;1889858;76;21050;-65
2022/07/29 02:31:49;;;;;;;11.55;4.72;;;;;;;17.83;85.09;101204.22;1895735;76;20990;-66
2022/07/29 02:34:19;;;;;;;10.63;4.20;;;;;;;17.92;85.13;101210.34;1895752;76;21104;-65
2022/07/29 02:36:49;;;;;;;9.83;4.92;;;;;;;18.01;84.95;101211.09;1895893;76;21034;-66
2022/07/29 02:39:19;;;;;;;9.10;4.78;;;;;;;18.11;84.71;101212.23;1895777;76;21095;-66
2022/07/29 02:41:54;;;;;;;8.90;3.95;;;;;;;18.21;84.40;101215.65;1895907;76;21583;-65
2022/07/29 02:44:25;;;;;;;10.45;4.87;;;;;;;18.29;84.19;101215.52;1895685;76;21026;-66
2022/07/29 02:47:09;;;;;;;10.18;4.92;;;;;;;18.33;83.97;101212.17;1895796;76;21108;-66
2022/07/29 02:50:01;;;;;;;9.53;4.42;;;;;;;18.31;83.76;101206.97;1895767;76;21088;-65
2022/07/29 02:52:32;;;;;;;9.68;5.08;;;;;;;18.37;83.56;101208.39;1895988;76;21190;-65
2022/07/29 02:55:10;;;;;;;11.05;4.97;;;;;;;18.50;83.41;101211.96;1895587;76;21088;-65
2022/07/29 02:57:47;;;;;;;10.48;4.42;;;;;;;18.66;83.35;101212.28;1895849;76;21026;-65
2022/07/29 03:00:17;;;;;;;10.03;4.72;;;;;;;18.82;83.19;101213.02;1894563;76;21539;-65
2022/07/29 03:02:48;;;;;;;11.53;5.22;;;;;;;19.03;82.72;101213.88;1895912;76;21099;-65
2022/07/29 03:05:23;;;;;;;8.78;4.22;;;;;;;19.24;81.79;101216.44;1895921;75;21002;-66
2022/07/29 03:08:00;;;;;;;8.25;4.17;;;;;;;19.37;80.97;101215.61;1895762;76;21026;-65
2022/07/29 03:10:29;;;;;;;10.50;4.83;;;;;;;19.51;80.29;101219.50;1895775;75;21030;-65
2022/07/29 03:12:58;;;;;;;12.43;4.15;;;;;;;19.53;79.62;101224.28;1896036;76;21045;-65
2022/07/29 03:15:28;;;;;;;7.15;4.40;;;;;;;19.56;79.20;101224.05;1895760;76;21449;-65
2022/07/29 03:17:57;;;;;;;8.85;4.15;;;;;;;19.60;79.25;101216.67;1895863;76;21448;-65
2022/07/29 03:20:27;;;;;;;10.32;3.83;;;;;;;19.64;79.33;101219.05;1895658;75;21034;-65
2022/07/29 03:22:55;;;;;;;9.20;4.60;;;;;;;19.70;79.10;101211.54;1895774;76;21491;-65
2022/07/29 03:25:24;;;;;;;7.47;3.92;;;;;;;19.67;78.85;101218.81;1895768;76;21038;-65
2022/07/29 03:27:53;;;;;;;9.48;3.83;;;;;;;19.71;78.89;101218.61;1895756;76;21513;-66
2022/07/29 03:30:22;;;;;;;6.33;3.60;;;;;;;19.74;78.91;101215.77;1902451;75;21165;-66
2022/07/29 03:32:52;;;;;;;8.60;3.90;;;;;;;19.80;78.86;101216.66;1905762;75;21568;-65
2022/07/29 03:35:22;;;;;;;9.03;3.77;;;;;;;19.86;78.75;101220.22;1905899;75;21426;-65
2022/07/29 03:37:51;;;;;;;9.25;3.90;;;;;;;19.92;78.54;101212.25;1905519;75;21164;-65
2022/07/29 03:40:25;;;;;;;16.60;4.97;;;;;;;20.00;78.31;101219.25;1905878;75;21116;-65
2022/07/29 03:42:56;;;;;;;7.12;4.40;;;;;;;20.08;78.21;101214.70;1905610;75;21087;-64
2022/07/29 03:45:26;;;;;;;8.20;4.08;;;;;;;20.22;78.23;101218.08;1905788;75;21027;-66
2022/07/29 03:47:57;;;;;;;7.42;3.58;;;;;;;20.36;78.03;101218.44;1905771;75;21462;-66
2022/07/29 03:50:26;;;;;;;8.13;3.90;;;;;;;20.51;77.84;101215.58;1905722;75;21035;-66
2022/07/29 03:52:55;;;;;;;6.80;4.67;;;;;;;20.67;77.70;101218.87;1905919;75;21128;-65
2022/07/29 03:55:24;;;;;;;7.58;3.87;;;;;;;20.88;77.59;101212.87;1905617;75;21039;-66
2022/07/29 03:57:53;;;;;;;11.57;4.08;;;;;;;21.05;77.25;101216.49;1905836;75;21112;-66
2022/07/29 04:00:23;;;;;;;6.47;3.50;;;;;;;21.24;76.80;101213.75;1905648;75;21039;-66
2022/07/29 04:02:52;;;;;;;12.53;3.90;;;;;;;21.42;76.34;101213.67;1905778;75;21045;-64
2022/07/29 04:05:21;;;;;;;8.83;4.05;;;;;;;21.56;75.54;101214.83;1905743;75;21540;-65
2022/07/29 04:07:49;;;;;;;7.20;3.92;;;;;;;21.70;74.55;101219.09;1905643;75;21125;-65
2022/07/29 04:10:18;;;;;;;6.95;3.72;;;;;;;21.86;74.08;101220.09;1905676;75;21015;-64
2022/07/29 04:12:47;;;;;;;12.75;3.58;;;;;;;22.01;73.22;101218.52;1905782;75;21478;-64
2022/07/29 04:15:16;;;;;;;11.93;3.72;;;;;;;22.20;72.88;101228.61;1905709;75;21074;-64
2022/07/29 04:17:45;;;;;;;5.85;3.17;;;;;;;22.44;72.40;101225.80;1905992;75;21015;-64
2022/07/29 04:20:13;;;;;;;6.17;3.42;;;;;;;22.60;71.34;101226.25;1905606;75;21047;-65
2022/07/29 04:22:42;;;;;;;13.62;4.00;;;;;;;22.83;71.13;101232.38;1905663;75;21106;-65
2022/07/29 04:25:11;;;;;;;5.83;3.22;;;;;;;23.15;70.88;101232.91;1905756;75;21485;-64
2022/07/29 04:27:59;;;;;;;8.80;3.60;;;;;;;23.42;70.36;101230.18;1905740;75;21007;-65
2022/07/29 04:30:10;;;;;;;7.67;3.52;;;;;;;23.73;69.96;101231.07;1903051;75;21047;-65
2022/07/29 04:32:39;;;;;;;10.65;3.95;;;;;;;23.99;69.19;101220.73;1905776;75;21137;-65
2022/07/29 04:35:08;;;;;;;8.08;4.08;;;;;;;24.27;68.60;101221.84;1905692;75;21501;-65
2022/07/29 04:37:37;;;;;;;7.50;3.60;;;;;;;24.56;68.33;101225.11;1905656;75;21132;-64
2022/07/29 04:40:06;;;;;;;9.48;4.17;;;;;;;24.89;68.00;101223.02;1905767;75;21031;-65
2022/07/29 04:42:35;;;;;;;5.95;3.35;;;;;;;25.20;67.51;101218.83;1905852;75;21043;-65
2022/07/29 04:45:04;;;;;;;8.93;4.20;;;;;;;25.51;67.06;101221.34;1905732;75;21105;-65
2022/07/29 04:47:33;;;;;;;9.70;3.42;;;;;;;25.85;66.75;101215.42;1905685;75;21113;-65
2022/07/29 04:50:02;;;;;;;7.05;3.58;;;;;;;26.20;66.36;101220.95;1905714;75;21054;-65
2022/07/29 04:52:30;;;;;;;7.20;3.90;;;;;;;26.54;65.66;101214.94;1905755;75;21047;-65
2022/07/29 04:54:59;;;;;;;9.30;3.75;;;;;;;26.80;64.77;101220.97;1905735;75;21105;-65
2022/07/29 04:57:27;;;;;;;13.80;3.77;;;;;;;27.06;64.30;101216.13;1905849;75;21047;-65
2022/07/29 04:59:56;;;;;;;5.22;3.60;;;;;;;27.38;63.84;101217.41;1905752;75;21035;-65
2022/07/29 05:02:25;;;;;;;7.60;3.77;;;;;;;27.68;63.27;101215.55;1905899;75;21043;-65
2022/07/29 05:04:53;;;;;;;5.78;3.65;;;;;;;27.96;62.63;101217.25;1905806;75;21047;-65
2022/07/29 05:07:22;;;;;;;9.18;4.50;;;;;;;28.32;62.25;101220.61;1905831;75;21090;-65
2022/07/29 05:09:50;;;;;;;5.95;3.58;;;;;;;28.55;61.33;101215.47;1905828;75;21591;-65
2022/07/29 05:12:19;;;;;;;8.00;5.03;;;;;;;28.79;60.78;101220.08;1905854;75;21048;-65
2022/07/29 05:14:48;;;;;;;8.70;6.30;;;;;;;29.04;60.42;101218.72;1905934;75;21157;-65
2022/07/29 05:17:16;;;;;;;15.88;7.95;;;;;;;29.32;60.08;101219.75;1905836;75;21034;-65
2022/07/29 05:19:45;;;;;;;13.43;5.45;;;;;;;29.61;59.42;101224.09;1905926;75;21011;-65
2022/07/29 05:22:14;;;;;;;10.28;5.53;;;;;;;29.76;58.70;101218.83;1905867;75;21039;-65
2022/07/29 05:24:42;;;;;;;6.92;4.90;;;;;;;30.02;58.38;101223.98;1905881;75;21172;-65
2022/07/29 05:27:11;;;;;;;12.18;5.47;;;;;;;30.29;58.11;101223.20;1905842;75;21138;-65
2022/07/29 05:29:39;;;;;;;13.70;4.95;;;;;;;30.61;57.63;101221.33;1905851;75;21108;-65
2022/07/29 05:32:08;;;;;;;7.80;4.45;;;;;;;30.91;56.82;101228.28;1905757;75;21071;-65
2022/07/29 05:34:37;;;;;;;10.78;4.60;;;;;;;31.13;55.86;101224.72;1905853;75;21039;-65
2022/07/29 05:37:05;;;;;;;13.70;4.75;;;;;;;31.39;55.37;101221.23;1905846;75;21043;-65
2022/07/29 05:39:34;;;;;;;11.28;4.80;;;;;;;31.58;54.74;101224.81;1905717;75;21016;-66
2022/07/29 05:42:03;;;;;;;6.62;4.70;;;;;;;31.71;54.08;101224.17;1905822;75;21117;-65
2022/07/29 05:44:33;;;;;;;10.75;4.65;;;;;;;31.93;53.30;101223.21;1905820;75;21075;-66
2022/07/29 05:47:02;;;;;;;22.02;5.72;;;;;;;32.20;52.70;101223.56;1906004;73;21069;-65
2022/07/29 05:49:30;;;;;;;17.75;5.62;;;;;;;32.26;51.83;101223.31;1905847;75;21109;-65
2022/07/29 05:51:59;;;;;;;14.30;5.10;;;;;;;32.46;51.01;101208.06;1905825;75;21047;-66
2022/07/29 05:54:28;;;;;;;13.35;4.70;;;;;;;32.46;51.01;101208.06;1905918;75;21121;-65
2022/07/29 05:56:56;;;;;;;15.48;4.90;;;;;;;32.81;50.51;101209.61;1905822;75;21109;-65
2022/07/29 05:59:25;;;;;;;12.75;4.55;;;;;;;32.89;49.77;101206.73;1905819;75;21035;-65
2022/07/29 06:01:54;;;;;;;15.18;4.70;;;;;;;32.89;49.11;101203.17;1905789;75;21055;-65
2022/07/29 06:04:22;;;;;;;19.37;5.50;;;;;;;32.88;48.31;101187.83;1905829;75;21148;-65
2022/07/29 06:06:51;;;;;;;19.05;5.60;;;;;;;32.88;48.31;101187.83;1905689;75;21039;-66
2022/07/29 06:09:19;;;;;;;17.57;4.97;;;;;;;32.98;47.89;101195.17;1905798;75;21117;-65
2022/07/29 06:11:48;;;;;;;8.65;3.90;;;;;;;33.09;47.54;101193.80;1905827;75;21039;-65
2022/07/29 06:14:17;;;;;;;14.40;5.10;;;;;;;33.21;47.59;101199.04;1905941;75;21047;-65
2022/07/29 06:16:46;;;;;;;12.50;4.30;;;;;;;33.35;46.98;101193.67;1905833;75;21113;-65
2022/07/29 06:19:14;;;;;;;5.78;3.72;;;;;;;33.60;46.97;101191.31;1905716;75;21035;-66
2022/07/29 06:21:44;;;;;;;8.50;4.20;;;;;;;33.69;46.11;101190.67;1905769;75;21067;-65
2022/07/29 06:24:14;;;;;;;7.22;4.03;;;;;;;33.71;45.66;101196.77;1905810;75;21473;-65
2022/07/29 06:26:43;;;;;;;11.73;5.10;;;;;;;33.83;45.57;101191.91;1905916;75;21071;-65
2022/07/29 06:29:12;;;;;;;12.03;4.97;;;;;;;33.87;45.46;101191.50;1905960;75;21019;-65
2022/07/29 06:31:41;;;;;;;8.08;4.08;;;;;;;34.09;45.32;101186.23;1905691;75;21153;-66
2022/07/29 06:34:09;;;;;;;10.78;4.33;;;;;;;34.29;45.32;101193.66;1905762;75;21129;-65
2022/07/29 06:36:39;;;;;;;6.17;4.10;;;;;;;34.26;44.61;101185.36;1905825;75;21458;-65
2022/07/29 06:39:08;;;;;;;5.90;3.35;;;;;;;34.30;44.38;101184.43;1905809;75;21423;-65
2022/07/29 06:41:37;;;;;;;11.08;4.08;;;;;;;34.31;43.67;101187.50;1905807;75;21555;-65
2022/07/29 06:44:07;;;;;;;8.78;4.00;;;;;;;34.17;43.08;101186.06;1905370;75;21091;-65
2022/07/29 06:46:36;;;;;;;7.60;3.60;;;;;;;34.30;43.54;101181.16;1905746;75;21506;-66
2022/07/29 06:49:04;;;;;;;6.50;4.40;;;;;;;34.67;43.55;101178.08;1905810;75;21157;-65
2022/07/29 06:51:33;;;;;;;12.30;4.20;;;;;;;35.04;43.32;101178.54;1905777;75;21098;-65
2022/07/29 06:54:05;;;;;;;8.60;3.95;;;;;;;35.30;42.65;101178.56;1905824;75;21125;-65
2022/07/29 06:56:36;;;;;;;6.85;3.92;;;;;;;35.45;42.48;101177.45;1905669;75;21015;-65
2022/07/29 06:59:05;;;;;;;7.03;3.80;;;;;;;35.59;41.79;101176.36;1906070;75;21203;-65
2022/07/29 07:01:33;;;;;;;11.93;4.10;;;;;;;35.80;41.68;101176.66;1905778;75;21889;-65
2022/07/29 07:04:02;;;;;;;6.50;3.60;;;;;;;35.92;41.27;101184.48;1905807;75;21019;-65
2022/07/29 07:06:30;;;;;;;7.05;5.10;;;;;;;36.05;41.14;101183.59;1905914;75;21050;-65
2022/07/29 07:08:59;;;;;;;6.60;3.75;;;;;;;35.93;40.56;101179.33;1905799;75;21116;-65
2022/07/29 07:11:28;;;;;;;6.47;3.67;;;;;;;35.85;40.31;101185.04;1905836;75;21015;-65
2022/07/29 07:13:57;;;;;;;8.58;4.20;;;;;;;35.87;39.88;101182.09;1905787;75;21120;-65
2022/07/29 07:16:25;;;;;;;6.58;3.95;;;;;;;35.88;39.94;101179.14;1905801;75;21043;-65
2022/07/29 07:18:54;;;;;;;7.55;3.72;;;;;;;36.18;39.75;101181.84;1905793;75;21196;-65
2022/07/29 07:21:22;;;;;;;7.10;3.50;;;;;;;36.42;39.67;101171.49;1905768;75;21003;-65
2022/07/29 07:23:51;;;;;;;7.47;4.05;;;;;;;36.44;39.01;101168.53;1905682;75;21047;-65
2022/07/29 07:26:20;;;;;;;7.20;3.85;;;;;;;36.48;39.01;101164.28;1905878;75;21031;-65
2022/07/29 07:28:48;;;;;;;6.87;4.28;;;;;;;36.53;38.57;101168.58;1905770;75;21116;-65
2022/07/29 07:31:17;;;;;;;6.55;3.40;;;;;;;36.37;38.20;101171.84;1905926;75;21035;-65
2022/07/29 07:33:46;;;;;;;8.05;3.87;;;;;;;36.15;37.90;101176.25;1886182;75;21481;-65
2022/07/29 07:36:15;;;;;;;4.10;3.70;;;;;;;36.03;38.22;101165.69;1883315;76;21010;-66
2022/07/29 07:38:43;;;;;;;5.25;3.70;;;;;;;35.92;38.51;101167.22;1883356;76;21069;-65
2022/07/29 07:41:12;;;;;;;5.85;3.65;;;;;;;36.04;38.65;101165.98;1883360;76;21030;-65
2022/07/29 07:43:41;;;;;;;4.58;3.77;;;;;;;36.25;38.19;101175.83;1883483;76;21102;-65
2022/07/29 07:46:09;;;;;;;6.00;3.85;;;;;;;36.32;38.36;101170.62;1883475;76;21104;-65
2022/07/29 07:48:38;;;;;;;7.58;3.40;;;;;;;36.34;38.09;101167.66;1883363;76;21031;-65
2022/07/29 07:51:07;;;;;;;6.80;3.30;;;;;;;36.53;37.87;101162.55;1883231;76;21215;-65
2022/07/29 07:53:36;;;;;;;4.28;3.42;;;;;;;36.50;37.09;101161.64;1883457;76;21046;-65
2022/07/29 07:56:06;;;;;;;10.40;4.78;;;;;;;36.71;37.27;101162.36;1883479;76;21014;-66
2022/07/29 07:58:35;;;;;;;13.80;5.03;;;;;;;36.86;36.88;101161.48;1883495;76;20998;-65
2022/07/29 08:01:04;;;;;;;7.42;4.00;;;;;;;36.83;36.97;101161.92;1883484;75;21167;-65
2022/07/29 08:03:33;;;;;;;8.08;4.72;;;;;;;36.78;36.99;101161.78;1883464;76;21473;-66
2022/07/29 08:06:03;;;;;;;6.78;3.27;;;;;;;36.90;36.92;101155.84;1883325;76;21469;-66
2022/07/29 08:08:31;;;;;;;4.50;3.02;;;;;;;36.81;36.76;101155.82;1883438;76;21488;-66
2022/07/29 08:11:01;;;;;;;8.20;3.40;;;;;;;36.86;36.94;101158.73;1883342;76;21042;-65
2022/07/29 08:13:31;;;;;;;5.03;3.55;;;;;;;37.19;36.91;101155.42;1883457;76;21042;-66
2022/07/29 08:16:01;;;;;;;5.33;3.58;;;;;;;37.32;35.78;101156.64;1883288;76;21046;-66
2022/07/29 08:18:31;;;;;;;6.95;4.00;;;;;;;37.14;35.42;101153.84;1883479;76;21441;-65
2022/07/29 08:21:00;;;;;;;7.62;3.02;;;;;;;37.45;35.91;101146.05;1883568;76;21124;-66
2022/07/29 08:23:38;;;;;;;6.62;2.87;;;;;;;37.84;35.80;101147.48;1883304;76;21528;-65
2022/07/29 08:25:59;;;;;;;9.18;3.17;;;;;;;37.74;34.26;101150.47;1882130;76;21035;-65
2022/07/29 08:28:27;;;;;;;4.72;3.30;;;;;;;37.46;34.30;101148.57;1883287;76;21010;-65
2022/07/29 08:30:56;;;;;;;9.98;3.35;;;;;;;37.23;33.99;101140.99;1883343;75;21030;-65
2022/07/29 08:33:25;;;;;;;5.37;3.95;;;;;;;37.21;34.53;101141.76;1893460;75;21135;-65
2022/07/29 08:35:53;;;;;;;5.65;3.90;;;;;;;37.25;34.57;101138.86;1905863;75;21059;-66
2022/07/29 08:38:22;;;;;;;4.80;3.62;;;;;;;37.21;34.62;101135.44;1906118;75;21051;-65
2022/07/29 08:40:51;;;;;;;5.08;3.77;;;;;;;37.17;34.36;101139.71;1906064;75;21043;-66
2022/07/29 08:43:20;;;;;;;6.22;3.33;;;;;;;37.30;34.83;101136.81;1905856;75;21110;-65
2022/07/29 08:45:51;;;;;;;5.53;3.70;;;;;;;37.43;34.58;101135.83;1905958;75;21128;-65
2022/07/29 08:48:22;;;;;;;6.37;3.45;;;;;;;37.52;34.36;101141.32;1905996;75;21035;-65
2022/07/29 08:50:56;;;;;;;7.37;4.30;;;;;;;37.90;34.25;101136.09;1906145;75;21113;-66
2022/07/29 08:53:27;;;;;;;8.25;4.17;;;;;;;38.12;34.05;101134.25;1904269;75;21094;-66
2022/07/29 08:55:56;;;;;;;7.40;3.98;;;;;;;38.25;33.76;101134.05;1905821;75;21066;-65
2022/07/29 08:58:26;;;;;;;7.17;4.08;;;;;;;38.45;33.71;101138.41;1905850;75;21528;-65
2022/07/29 09:00:56;;;;;;;4.40;3.98;;;;;;;38.37;33.38;101131.34;1905854;75;21638;-65
2022/07/29 09:03:27;;;;;;;4.58;3.62;;;;;;;38.35;33.34;101128.00;1905956;75;21087;-65
2022/07/29 09:05:56;;;;;;;4.85;3.60;;;;;;;38.39;32.94;101121.77;1906191;73;21128;-66
2022/07/29 09:08:25;;;;;;;4.10;3.55;;;;;;;38.37;33.11;101124.47;1905770;75;21138;-65
2022/07/29 09:10:59;;;;;;;10.98;4.20;;;;;;;38.63;33.42;101131.48;1905831;75;21536;-66
2022/07/29 09:13:28;;;;;;;6.37;4.22;;;;;;;38.68;33.31;101132.13;1905837;75;21035;-65
2022/07/29 09:15:56;;;;;;;5.83;3.98;;;;;;;38.08;33.41;101133.84;1905848;75;21043;-65
2022/07/29 09:18:37;;;;;;;6.53;3.33;;;;;;;37.84;33.83;101130.16;1905833;75;21172;-65
2022/07/29 09:24:12;;;;;;;6.75;4.17;;;;;;;37.60;33.19;101127.80;1905855;75;21079;-66
2022/07/29 09:26:44;;;;;;;9.18;3.83;;;;;;;37.82;33.55;101130.94;1905851;75;21141;-65
2022/07/29 09:29:15;;;;;;;5.20;3.85;;;;;;;37.86;33.27;101128.02;1905905;75;21224;-65
2022/07/29 09:31:46;;;;;;;7.72;5.40;;;;;;;37.86;32.64;101125.27;1905912;75;21097;-65
2022/07/29 09:34:17;;;;;;;7.12;3.95;;;;;;;37.68;33.03;101117.89;1905917;75;21184;-65
2022/07/29 09:36:48;;;;;;;8.93;4.10;;;;;;;37.77;33.73;101118.42;1906221;75;21039;-66
2022/07/29 09:39:32;;;;;;;7.08;3.83;;;;;;;37.46;33.47;101112.87;1905887;75;21039;-67
2022/07/29 09:42:03;;;;;;;7.97;3.65;;;;;;;37.78;33.66;101111.87;1905737;75;21446;-65
2022/07/29 09:44:43;;;;;;;7.53;4.00;;;;;;;38.18;33.57;101110.80;1906105;75;21438;-65
2022/07/29 09:47:12;;;;;;;7.42;3.50;;;;;;;37.99;33.68;101112.71;1905781;75;21366;-65
2022/07/29 09:49:58;;;;;;;6.50;4.33;;;;;;;37.00;34.12;101111.95;1905840;75;21037;-65
2022/07/29 09:52:28;;;;;;;9.80;4.22;;;;;;;36.23;35.13;101108.89;1905805;75;21094;-65
2022/07/29 09:55:10;;;;;;;6.35;4.00;;;;;;;35.80;35.61;101107.31;1905823;75;21536;-66
2022/07/29 09:57:39;;;;;;;4.72;3.85;;;;;;;36.21;35.47;101104.16;1906008;75;21059;-65
2022/07/29 10:00:17;;;;;;;6.62;3.52;;;;;;;36.60;34.88;101108.20;1905818;75;21035;-66
2022/07/29 10:02:47;;;;;;;4.92;3.75;;;;;;;36.10;35.15;101102.10;1905907;75;21109;-66
2022/07/29 10:05:24;;;;;;;5.60;3.77;;;;;;;35.74;35.50;101102.17;1905817;75;21504;-65
2022/07/29 10:07:58;;;;;;;8.38;4.33;;;;;;;35.85;35.62;101099.28;1905925;75;21105;-65
2022/07/29 10:10:36;;;;;;;4.10;3.40;;;;;;;36.19;35.57;101093.09;1905864;75;21097;-65
2022/07/29 10:13:13;;;;;;;5.60;4.05;;;;;;;36.45;35.18;101102.51;1905766;75;21098;-66
2022/07/29 10:15:45;;;;;;;6.67;4.12;;;;;;;36.53;35.08;101091.79;1905946;75;21015;-66
2022/07/29 10:18:16;;;;;;;;;;;;;;;36.95;35.02;101087.13;1908610;75;21043;-66
2022/07/29 10:20:44;;;;;;;8.88;3.87;;;;;;;36.67;34.33;101088.45;1905830;75;20103;-65
2022/07/29 10:23:14;;;;;;;10.40;4.08;;;;;;;36.05;34.41;101088.21;1905665;75;21015;-66
2022/07/29 10:25:42;;;;;;;6.03;4.03;;;;;;;36.01;35.09;101083.70;1905770;75;21125;-66
2022/07/29 10:28:11;;;;;;;7.75;3.60;;;;;;;35.75;35.79;101084.70;1905833;75;21051;-66
2022/07/29 10:30:41;;;;;;;4.25;3.33;;;;;;;35.87;36.21;101084.30;1905805;75;21015;-66
2022/07/29 10:33:40;;;;;;;6.37;3.75;;;;;;;36.00;35.18;101086.66;1905885;75;21050;-66
2022/07/29 10:36:18;;;;;;;11.08;3.92;;;;;;;36.09;34.69;101089.44;1895984;75;21065;-65
2022/07/29 10:39:06;;;;;;;4.78;3.80;;;;;;;35.93;33.89;101088.92;1895773;76;21115;-65
2022/07/29 10:42:00;;;;;;;6.12;3.75;;;;;;;36.06;34.43;101094.84;1898140;74;21522;-65
2022/07/29 10:44:29;;;;;;;5.80;3.87;;;;;;;36.18;34.47;101094.14;1895694;76;21433;-65
2022/07/29 10:46:58;;;;;;;5.30;3.42;;;;;;;36.43;34.40;101096.91;1895996;76;21456;-65
2022/07/29 10:49:29;;;;;;;5.95;3.70;;;;;;;36.22;33.53;101094.03;1895879;76;21111;-65
2022/07/29 10:52:11;;;;;;;5.40;3.80;;;;;;;36.18;33.62;101099.62;1895871;74;21099;-65
2022/07/29 10:54:48;;;;;;;6.00;3.55;;;;;;;36.04;33.67;101081.90;1895892;75;21096;-65
2022/07/29 10:57:28;;;;;;;9.05;3.98;;;;;;;36.04;33.67;101081.90;1895775;76;21033;-65
2022/07/29 11:00:10;;;;;;;5.35;3.75;;;;;;;35.84;33.52;101081.16;1895756;76;21563;-65
2022/07/29 11:02:44;;;;;;;8.60;3.97;;;;;;;35.57;33.85;101079.90;1896028;76;21010;-65
2022/07/29 11:05:23;;;;;;;8.13;4.12;;;;;;;35.28;34.69;101080.73;1895763;76;21010;-65
2022/07/29 11:08:20;;;;;;;9.00;4.65;;;;;;;35.29;35.26;101074.75;1895867;76;21104;-65
2022/07/29 11:10:45;;;;;;;4.95;4.10;;;;;;;35.26;35.46;101078.73;1894270;76;21037;-65
2022/07/29 11:13:15;;;;;;;7.60;4.42;;;;;;;35.14;35.59;101074.98;1895705;74;21577;-66
2022/07/29 11:15:55;;;;;;;10.55;4.33;;;;;;;35.19;35.71;101080.66;1899800;74;21010;-65
2022/07/29 11:18:24;;;;;;;7.87;4.20;;;;;;;35.21;35.76;101077.17;1895892;76;21092;-65
2022/07/29 11:20:53;;;;;;;6.25;4.22;;;;;;;35.18;35.58;101074.34;1895752;76;21010;-65
2022/07/29 11:23:38;;;;;;;5.95;3.95;;;;;;;35.00;35.74;101080.45;1895769;75;21508;-65
2022/07/29 11:26:29;;;;;;;6.95;4.67;;;;;;;34.78;35.56;101073.55;1895866;76;21014;-65
2022/07/29 11:29:09;;;;;;;7.70;3.55;;;;;;;34.65;35.58;101071.64;1893993;76;21014;-65
2022/07/29 11:31:45;;;;;;;6.03;3.60;;;;;;;34.44;35.63;101072.70;1894932;76;21524;-65
2022/07/29 11:34:27;;;;;;;;;;;;;;;34.16;35.91;101065.50;1896965;76;21115;-65
2022/07/29 11:37:13;;;;;;;7.10;3.87;;;;;;;33.95;36.12;101066.50;1895788;76;20161;-65
2022/07/29 11:39:58;;;;;;;10.28;4.22;;;;;;;33.96;36.25;101059.17;1895778;76;21100;-65
2022/07/29 11:42:29;;;;;;;5.72;3.67;;;;;;;34.11;36.26;101054.35;1895843;76;21456;-65
2022/07/29 11:45:07;;;;;;;4.10;3.63;;;;;;;34.18;36.47;101052.50;1895984;76;21017;-65
2022/07/29 11:47:38;;;;;;;8.70;4.25;;;;;;;34.30;36.39;101049.98;1895880;76;21065;-65
2022/07/29 11:50:13;;;;;;;8.05;4.03;;;;;;;34.33;36.35;101050.10;1895866;76;21100;-65